sensor_id;sensor_type;location;lat;lon;timestamp;pressure;altitude;pressure_sealevel;temperature;humidity
13486;BME280;6815;59.336;17.998;2022-12-11T00:01:44;78663.81;;;-145.37;88.90
13486;BME280;6815;59.336;17.998;2022-12-11T00:04:10;78637.66;;;-145.37;88.59
13486;BME280;6815;59.336;17.998;2022-12-11T00:06:35;78645.69;;;-145.37;88.66
13486;BME280;6815;59.336;17.998;2022-12-11T00:09:01;78659.78;;;-145.37;89.00
13486;BME280;6815;59.336;17.998;2022-12-11T00:11:26;78635.66;;;-145.37;88.79
13486;BME280;6815;59.336;17.998;2022-12-11T00:13:52;78631.63;;;-145.37;88.52
13486;BME280;6815;59.336;17.998;2022-12-11T00:16:17;78633.63;;;-145.37;88.63
13486;BME280;6815;59.336;17.998;2022-12-11T00:18:43;78627.59;;;-145.37;88.63
13486;BME280;6815;59.336;17.998;2022-12-11T00:21:13;78655.75;;;-145.37;89.18
13486;BME280;6815;59.336;17.998;2022-12-11T00:23:40;78675.88;;;-145.37;90.28
13486;BME280;6815;59.336;17.998;2022-12-11T00:26:12;78667.81;;;-145.37;90.13
13486;BME280;6815;59.336;17.998;2022-12-11T00:32:34;78671.84;;;-145.37;90.06
13486;BME280;6815;59.336;17.998;2022-12-11T00:35:01;78657.78;;;-145.37;89.51
13486;BME280;6815;59.336;17.998;2022-12-11T00:41:04;78677.88;;;-145.37;89.50
13486;BME280;6815;59.336;17.998;2022-12-11T00:43:29;78673.88;;;-145.37;90.15
13486;BME280;6815;59.336;17.998;2022-12-11T01:41:08;78738.25;;;-145.37;90.56
13486;BME280;6815;59.336;17.998;2022-12-11T01:43:34;78750.31;;;-145.37;90.73
13486;BME280;6815;59.336;17.998;2022-12-11T01:46:00;78726.16;;;-145.37;90.54
13486;BME280;6815;59.336;17.998;2022-12-11T01:48:30;78689.97;;;-145.37;89.80
13486;BME280;6815;59.336;17.998;2022-12-11T01:50:59;78738.25;;;-145.37;90.13
13486;BME280;6815;59.336;17.998;2022-12-11T01:53:38;78720.13;;;-145.37;89.87
13486;BME280;6815;59.336;17.998;2022-12-11T01:56:05;78738.25;;;-145.37;88.95
13486;BME280;6815;59.336;17.998;2022-12-11T01:58:35;78698.00;;;-145.37;88.64
13486;BME280;6815;59.336;17.998;2022-12-11T02:01:03;78696.00;;;-145.37;87.79
13486;BME280;6815;59.336;17.998;2022-12-11T02:03:28;78714.09;;;-145.37;88.99
13486;BME280;6815;59.336;17.998;2022-12-11T02:05:58;78716.13;;;-145.37;89.55
13486;BME280;6815;59.336;17.998;2022-12-11T02:08:24;78720.13;;;-145.37;89.27
13486;BME280;6815;59.336;17.998;2022-12-11T02:13:26;78724.16;;;-145.37;88.51
13486;BME280;6815;59.336;17.998;2022-12-11T02:16:03;78730.19;;;-145.37;88.72
13486;BME280;6815;59.336;17.998;2022-12-11T02:18:35;78762.38;;;-145.37;88.89
13486;BME280;6815;59.336;17.998;2022-12-11T02:21:12;78754.34;;;-145.37;89.40
13486;BME280;6815;59.336;17.998;2022-12-11T02:26:30;78730.19;;;-145.37;88.67
13486;BME280;6815;59.336;17.998;2022-12-11T02:29:06;78746.28;;;-145.37;89.64
13486;BME280;6815;59.336;17.998;2022-12-11T02:31:36;78740.25;;;-145.37;89.40
13486;BME280;6815;59.336;17.998;2022-12-11T02:34:11;78740.25;;;-145.37;89.35
13486;BME280;6815;59.336;17.998;2022-12-11T02:36:44;78742.28;;;-145.37;87.91
13486;BME280;6815;59.336;17.998;2022-12-11T02:39:12;78746.28;;;-145.37;89.04
13486;BME280;6815;59.336;17.998;2022-12-11T02:41:49;78738.25;;;-145.37;88.33
13486;BME280;6815;59.336;17.998;2022-12-11T02:44:29;78702.03;;;-145.37;88.13
13486;BME280;6815;59.336;17.998;2022-12-11T02:46:58;78752.31;;;-145.37;88.47
13486;BME280;6815;59.336;17.998;2022-12-11T02:49:25;78766.41;;;-145.37;88.26
13486;BME280;6815;59.336;17.998;2022-12-11T02:51:54;78768.41;;;-145.37;88.80
13486;BME280;6815;59.336;17.998;2022-12-11T02:54:26;78758.34;;;-145.37;88.28
13486;BME280;6815;59.336;17.998;2022-12-11T02:56:57;78734.22;;;-145.37;87.47
13486;BME280;6815;59.336;17.998;2022-12-11T02:59:33;78764.41;;;-145.37;87.51
13486;BME280;6815;59.336;17.998;2022-12-11T03:02:00;78780.50;;;-145.37;87.17
13486;BME280;6815;59.336;17.998;2022-12-11T03:04:27;78758.34;;;-145.37;87.64
13486;BME280;6815;59.336;17.998;2022-12-11T03:06:55;78732.22;;;-145.37;87.28
13486;BME280;6815;59.336;17.998;2022-12-11T03:09:24;78734.22;;;-145.37;86.93
13486;BME280;6815;59.336;17.998;2022-12-11T03:11:51;78732.22;;;-145.37;86.70
13486;BME280;6815;59.336;17.998;2022-12-11T03:14:17;78744.28;;;-145.37;86.69
13486;BME280;6815;59.336;17.998;2022-12-11T03:16:58;78742.28;;;-145.37;86.77
13486;BME280;6815;59.336;17.998;2022-12-11T03:19:41;78732.22;;;-145.37;86.25
13486;BME280;6815;59.336;17.998;2022-12-11T03:22:27;78756.34;;;-145.37;87.39
13486;BME280;6815;59.336;17.998;2022-12-11T03:25:12;78726.16;;;-145.37;86.76
13486;BME280;6815;59.336;17.998;2022-12-11T03:27:45;78738.25;;;-145.37;87.76
13486;BME280;6815;59.336;17.998;2022-12-11T03:30:18;78764.41;;;-145.37;87.17
13486;BME280;6815;59.336;17.998;2022-12-11T03:32:51;78744.28;;;-145.37;87.48
13486;BME280;6815;59.336;17.998;2022-12-11T03:35:32;78776.47;;;-145.37;87.20
13486;BME280;6815;59.336;17.998;2022-12-11T03:38:14;78754.34;;;-145.37;86.78
13486;BME280;6815;59.336;17.998;2022-12-11T03:40:42;78770.44;;;-145.37;87.06
13486;BME280;6815;59.336;17.998;2022-12-11T03:43:10;78778.47;;;-145.37;86.48
13486;BME280;6815;59.336;17.998;2022-12-11T03:45:37;78772.44;;;-145.37;85.99
13486;BME280;6815;59.336;17.998;2022-12-11T03:48:04;78774.47;;;-145.37;86.25
13486;BME280;6815;59.336;17.998;2022-12-11T03:50:32;78786.53;;;-145.37;86.53
13486;BME280;6815;59.336;17.998;2022-12-11T03:52:59;78784.50;;;-145.37;86.67
13486;BME280;6815;59.336;17.998;2022-12-11T03:55:26;78766.41;;;-145.37;87.21
13486;BME280;6815;59.336;17.998;2022-12-11T03:57:53;78774.47;;;-145.37;86.61
13486;BME280;6815;59.336;17.998;2022-12-11T04:00:20;78750.31;;;-145.37;86.33
13486;BME280;6815;59.336;17.998;2022-12-11T04:02:46;78778.47;;;-145.37;86.21
13486;BME280;6815;59.336;17.998;2022-12-11T04:05:32;78766.41;;;-145.37;86.13
13486;BME280;6815;59.336;17.998;2022-12-11T04:07:59;78760.38;;;-145.37;86.24
13486;BME280;6815;59.336;17.998;2022-12-11T04:10:24;78740.25;;;-145.37;85.27
13486;BME280;6815;59.336;17.998;2022-12-11T04:12:50;78786.53;;;-145.37;85.36
13486;BME280;6815;59.336;17.998;2022-12-11T04:15:15;78792.56;;;-145.37;86.01
13486;BME280;6815;59.336;17.998;2022-12-11T04:17:41;78778.47;;;-145.37;85.10
13486;BME280;6815;59.336;17.998;2022-12-11T04:20:25;78774.47;;;-145.37;85.04
13486;BME280;6815;59.336;17.998;2022-12-11T04:23:11;78770.44;;;-145.37;84.85
13486;BME280;6815;59.336;17.998;2022-12-11T04:26:08;78784.50;;;-145.37;85.24
13486;BME280;6815;59.336;17.998;2022-12-11T04:28:35;78808.66;;;-145.37;85.69
13486;BME280;6815;59.336;17.998;2022-12-11T04:31:00;78800.59;;;-145.37;85.83
13486;BME280;6815;59.336;17.998;2022-12-11T04:33:26;78808.66;;;-145.37;86.10
13486;BME280;6815;59.336;17.998;2022-12-11T04:35:51;78808.66;;;-145.37;86.03
13486;BME280;6815;59.336;17.998;2022-12-11T04:38:18;78800.59;;;-145.37;85.26
13486;BME280;6815;59.336;17.998;2022-12-11T04:40:44;78784.50;;;-145.37;85.82
13486;BME280;6815;59.336;17.998;2022-12-11T04:43:09;78782.50;;;-145.37;84.93
13486;BME280;6815;59.336;17.998;2022-12-11T04:45:35;78804.63;;;-145.37;85.27
13486;BME280;6815;59.336;17.998;2022-12-11T04:48:00;78802.63;;;-145.37;84.85
13486;BME280;6815;59.336;17.998;2022-12-11T04:50:26;78814.69;;;-145.37;85.38
13486;BME280;6815;59.336;17.998;2022-12-11T04:52:55;78814.69;;;-145.37;85.86
13486;BME280;6815;59.336;17.998;2022-12-11T04:55:21;78806.66;;;-145.37;86.38
13486;BME280;6815;59.336;17.998;2022-12-11T04:57:47;78822.75;;;-145.37;86.36
13486;BME280;6815;59.336;17.998;2022-12-11T05:00:14;78830.78;;;-145.37;86.79
13486;BME280;6815;59.336;17.998;2022-12-11T05:02:41;78832.81;;;-145.37;86.78
13486;BME280;6815;59.336;17.998;2022-12-11T05:05:10;78800.59;;;-145.37;85.86
13486;BME280;6815;59.336;17.998;2022-12-11T05:07:35;78810.66;;;-145.37;85.75
13486;BME280;6815;59.336;17.998;2022-12-11T05:10:01;78802.63;;;-145.37;85.61
13486;BME280;6815;59.336;17.998;2022-12-11T05:12:27;78788.53;;;-145.37;85.84
13486;BME280;6815;59.336;17.998;2022-12-11T05:14:53;78808.66;;;-145.37;85.85
13486;BME280;6815;59.336;17.998;2022-12-11T05:17:20;78814.69;;;-145.37;85.97
13486;BME280;6815;59.336;17.998;2022-12-11T05:19:49;78794.56;;;-145.37;85.50
13486;BME280;6815;59.336;17.998;2022-12-11T05:22:16;78792.56;;;-145.37;85.78
13486;BME280;6815;59.336;17.998;2022-12-11T05:24:41;78798.59;;;-145.37;85.91
13486;BME280;6815;59.336;17.998;2022-12-11T05:27:07;78810.66;;;-145.37;86.51
13486;BME280;6815;59.336;17.998;2022-12-11T05:29:32;78816.69;;;-145.37;86.81
13486;BME280;6815;59.336;17.998;2022-12-11T05:31:58;78802.63;;;-145.37;86.43
13486;BME280;6815;59.336;17.998;2022-12-11T05:34:23;78818.72;;;-145.37;85.80
13486;BME280;6815;59.336;17.998;2022-12-11T05:36:49;78812.69;;;-145.37;86.49
13486;BME280;6815;59.336;17.998;2022-12-11T05:39:14;78782.50;;;-145.37;85.08
13486;BME280;6815;59.336;17.998;2022-12-11T05:41:40;78802.63;;;-145.37;85.64
13486;BME280;6815;59.336;17.998;2022-12-11T05:44:05;78820.72;;;-145.37;86.51
13486;BME280;6815;59.336;17.998;2022-12-11T05:46:31;78814.69;;;-145.37;86.17
13486;BME280;6815;59.336;17.998;2022-12-11T05:48:59;78792.56;;;-145.37;85.97
13486;BME280;6815;59.336;17.998;2022-12-11T05:51:26;78788.53;;;-145.37;85.55
13486;BME280;6815;59.336;17.998;2022-12-11T05:53:52;78756.34;;;-145.37;85.60
13486;BME280;6815;59.336;17.998;2022-12-11T05:56:24;78770.44;;;-145.37;85.60
13486;BME280;6815;59.336;17.998;2022-12-11T05:58:51;78794.56;;;-145.37;86.04
13486;BME280;6815;59.336;17.998;2022-12-11T06:01:20;78790.56;;;-145.37;86.09
13486;BME280;6815;59.336;17.998;2022-12-11T06:03:46;78816.69;;;-145.37;86.36
13486;BME280;6815;59.336;17.998;2022-12-11T06:06:11;78806.66;;;-145.37;85.99
13486;BME280;6815;59.336;17.998;2022-12-11T06:08:37;78824.75;;;-145.37;86.51
13486;BME280;6815;59.336;17.998;2022-12-11T06:11:03;78818.72;;;-145.37;86.22
13486;BME280;6815;59.336;17.998;2022-12-11T06:13:29;78802.63;;;-145.37;85.64
13486;BME280;6815;59.336;17.998;2022-12-11T06:15:59;78794.56;;;-145.37;85.55
13486;BME280;6815;59.336;17.998;2022-12-11T06:18:25;78800.59;;;-145.37;85.40
13486;BME280;6815;59.336;17.998;2022-12-11T06:20:50;78822.75;;;-145.37;85.83
13486;BME280;6815;59.336;17.998;2022-12-11T06:23:16;78808.66;;;-145.37;85.64
13486;BME280;6815;59.336;17.998;2022-12-11T06:25:42;78806.66;;;-145.37;85.71
13486;BME280;6815;59.336;17.998;2022-12-11T06:28:07;78810.66;;;-145.37;84.84
13486;BME280;6815;59.336;17.998;2022-12-11T06:30:33;78806.66;;;-145.37;85.21
13486;BME280;6815;59.336;17.998;2022-12-11T06:32:58;78820.72;;;-145.37;85.06
13486;BME280;6815;59.336;17.998;2022-12-11T06:35:25;78838.84;;;-145.37;85.40
13486;BME280;6815;59.336;17.998;2022-12-11T06:37:51;78836.81;;;-145.37;85.85
13486;BME280;6815;59.336;17.998;2022-12-11T06:40:16;78832.81;;;-145.37;85.64
13486;BME280;6815;59.336;17.998;2022-12-11T06:42:42;78812.69;;;-145.37;85.37
13486;BME280;6815;59.336;17.998;2022-12-11T06:45:08;78828.78;;;-145.37;85.68
13486;BME280;6815;59.336;17.998;2022-12-11T06:47:33;78824.75;;;-145.37;86.62
13486;BME280;6815;59.336;17.998;2022-12-11T06:49:59;78834.81;;;-145.37;86.23
13486;BME280;6815;59.336;17.998;2022-12-11T06:52:25;78828.78;;;-145.37;86.03
13486;BME280;6815;59.336;17.998;2022-12-11T06:54:54;78822.75;;;-145.37;86.54
13486;BME280;6815;59.336;17.998;2022-12-11T06:57:20;78842.84;;;-145.37;86.56
13486;BME280;6815;59.336;17.998;2022-12-11T06:59:45;78814.69;;;-145.37;86.18
13486;BME280;6815;59.336;17.998;2022-12-11T07:02:11;78842.84;;;-145.37;86.87
13486;BME280;6815;59.336;17.998;2022-12-11T07:04:40;78842.84;;;-145.37;87.06
13486;BME280;6815;59.336;17.998;2022-12-11T07:07:06;78824.75;;;-145.37;86.48
13486;BME280;6815;59.336;17.998;2022-12-11T07:09:32;78840.84;;;-145.37;86.87
13486;BME280;6815;59.336;17.998;2022-12-11T07:11:58;78844.88;;;-145.37;86.62
13486;BME280;6815;59.336;17.998;2022-12-11T07:14:23;78844.88;;;-145.37;87.01
13486;BME280;6815;59.336;17.998;2022-12-11T07:16:49;78826.75;;;-145.37;86.81
13486;BME280;6815;59.336;17.998;2022-12-11T07:19:15;78802.63;;;-145.37;86.14
13486;BME280;6815;59.336;17.998;2022-12-11T07:21:40;78832.81;;;-145.37;86.69
13486;BME280;6815;59.336;17.998;2022-12-11T07:24:07;78844.88;;;-145.37;87.32
13486;BME280;6815;59.336;17.998;2022-12-11T07:26:33;78840.84;;;-145.37;87.28
13486;BME280;6815;59.336;17.998;2022-12-11T07:28:59;78834.81;;;-145.37;87.60
13486;BME280;6815;59.336;17.998;2022-12-11T07:31:28;78826.75;;;-145.37;87.18
13486;BME280;6815;59.336;17.998;2022-12-11T07:33:59;78828.78;;;-145.37;86.66
13486;BME280;6815;59.336;17.998;2022-12-11T07:36:25;78824.75;;;-145.37;86.32
13486;BME280;6815;59.336;17.998;2022-12-11T07:38:52;78818.72;;;-145.37;86.21
13486;BME280;6815;59.336;17.998;2022-12-11T07:41:18;78806.66;;;-145.37;85.68
13486;BME280;6815;59.336;17.998;2022-12-11T07:43:43;78800.59;;;-145.37;85.52
13486;BME280;6815;59.336;17.998;2022-12-11T07:46:15;78820.72;;;-145.37;85.71
13486;BME280;6815;59.336;17.998;2022-12-11T07:48:43;78800.59;;;-145.37;85.29
13486;BME280;6815;59.336;17.998;2022-12-11T07:53:46;78838.84;;;-145.37;86.21
13486;BME280;6815;59.336;17.998;2022-12-11T07:56:12;78846.88;;;-145.37;86.72
13486;BME280;6815;59.336;17.998;2022-12-11T07:58:38;78826.75;;;-145.37;87.14
13486;BME280;6815;59.336;17.998;2022-12-11T08:01:15;78832.81;;;-145.37;86.75
13486;BME280;6815;59.336;17.998;2022-12-11T08:03:41;78818.72;;;-145.37;86.60
13486;BME280;6815;59.336;17.998;2022-12-11T08:06:07;78822.75;;;-145.37;86.25
13486;BME280;6815;59.336;17.998;2022-12-11T08:08:34;78816.69;;;-145.37;86.67
13486;BME280;6815;59.336;17.998;2022-12-11T08:11:01;78830.78;;;-145.37;86.31
13486;BME280;6815;59.336;17.998;2022-12-11T08:13:29;78814.69;;;-145.37;86.32
13486;BME280;6815;59.336;17.998;2022-12-11T08:15:55;78856.94;;;-145.37;86.83
13486;BME280;6815;59.336;17.998;2022-12-11T08:18:20;78869.00;;;-145.37;87.20
13486;BME280;6815;59.336;17.998;2022-12-11T08:20:46;78836.81;;;-145.37;86.93
13486;BME280;6815;59.336;17.998;2022-12-11T08:23:11;78828.78;;;-145.37;85.94
13486;BME280;6815;59.336;17.998;2022-12-11T08:25:37;78826.75;;;-145.37;85.69
13486;BME280;6815;59.336;17.998;2022-12-11T08:28:02;78808.66;;;-145.37;85.23
13486;BME280;6815;59.336;17.998;2022-12-11T08:30:28;78850.91;;;-145.37;86.28
13486;BME280;6815;59.336;17.998;2022-12-11T08:32:53;78818.72;;;-145.37;86.14
13486;BME280;6815;59.336;17.998;2022-12-11T08:35:19;78814.69;;;-145.37;85.60
13486;BME280;6815;59.336;17.998;2022-12-11T08:37:44;78838.84;;;-145.37;85.60
13486;BME280;6815;59.336;17.998;2022-12-11T08:40:10;78846.88;;;-145.37;85.84
13486;BME280;6815;59.336;17.998;2022-12-11T08:42:36;78852.91;;;-145.37;85.99
13486;BME280;6815;59.336;17.998;2022-12-11T08:45:02;78838.84;;;-145.37;86.36
13486;BME280;6815;59.336;17.998;2022-12-11T08:47:29;78844.88;;;-145.37;86.33
13486;BME280;6815;59.336;17.998;2022-12-11T08:49:55;78862.97;;;-145.37;87.04
13486;BME280;6815;59.336;17.998;2022-12-11T08:52:21;78850.91;;;-145.37;86.76
13486;BME280;6815;59.336;17.998;2022-12-11T08:54:52;78854.94;;;-145.37;87.05
13486;BME280;6815;59.336;17.998;2022-12-11T08:57:17;78852.91;;;-145.37;86.77
13486;BME280;6815;59.336;17.998;2022-12-11T08:59:43;78869.00;;;-145.37;87.34
13486;BME280;6815;59.336;17.998;2022-12-11T09:02:10;78830.78;;;-145.37;86.73
13486;BME280;6815;59.336;17.998;2022-12-11T09:04:36;78852.91;;;-145.37;86.38
13486;BME280;6815;59.336;17.998;2022-12-11T09:07:02;78842.84;;;-145.37;86.15
13486;BME280;6815;59.336;17.998;2022-12-11T09:09:29;78865.00;;;-145.37;86.39
13486;BME280;6815;59.336;17.998;2022-12-11T09:52:05;78858.94;;;-145.37;87.20
13486;BME280;6815;59.336;17.998;2022-12-11T09:54:32;78873.03;;;-145.37;87.42
13486;BME280;6815;59.336;17.998;2022-12-11T10:03:01;78867.00;;;-145.37;87.78
13486;BME280;6815;59.336;17.998;2022-12-11T10:05:49;78879.06;;;-145.37;87.87
13486;BME280;6815;59.336;17.998;2022-12-11T10:17:11;78889.13;;;-145.37;88.30
13486;BME280;6815;59.336;17.998;2022-12-11T10:19:38;78883.09;;;-145.37;88.83
13486;BME280;6815;59.336;17.998;2022-12-11T10:22:13;78875.06;;;-145.37;88.24
13486;BME280;6815;59.336;17.998;2022-12-11T10:25:02;78873.03;;;-145.37;88.14
13486;BME280;6815;59.336;17.998;2022-12-11T10:27:29;78830.78;;;-145.37;87.29
13486;BME280;6815;59.336;17.998;2022-12-11T10:30:22;78865.00;;;-145.37;87.24
13486;BME280;6815;59.336;17.998;2022-12-11T10:35:32;78881.09;;;-145.37;87.93
13486;BME280;6815;59.336;17.998;2022-12-11T10:38:22;78883.09;;;-145.37;87.69
13486;BME280;6815;59.336;17.998;2022-12-11T10:40:55;78865.00;;;-145.37;87.52
13486;BME280;6815;59.336;17.998;2022-12-11T10:43:46;78883.09;;;-145.37;88.30
13486;BME280;6815;59.336;17.998;2022-12-11T10:46:21;78887.13;;;-145.37;88.26
13486;BME280;6815;59.336;17.998;2022-12-11T10:48:50;78901.19;;;-145.37;88.32
13486;BME280;6815;59.336;17.998;2022-12-11T10:51:34;78895.16;;;-145.37;87.94
13486;BME280;6815;59.336;17.998;2022-12-11T10:54:07;78905.22;;;-145.37;87.56
13486;BME280;6815;59.336;17.998;2022-12-11T10:56:35;78919.31;;;-145.37;88.07
13486;BME280;6815;59.336;17.998;2022-12-11T10:59:01;78899.19;;;-145.37;88.25
13486;BME280;6815;59.336;17.998;2022-12-11T11:01:29;78893.16;;;-145.37;88.32
13486;BME280;6815;59.336;17.998;2022-12-11T11:04:06;78893.16;;;-145.37;87.76
13486;BME280;6815;59.336;17.998;2022-12-11T11:06:38;78911.25;;;-145.37;88.30
13486;BME280;6815;59.336;17.998;2022-12-11T11:09:21;78905.22;;;-145.37;88.21
13486;BME280;6815;59.336;17.998;2022-12-11T11:11:49;78915.28;;;-145.37;87.80
13486;BME280;6815;59.336;17.998;2022-12-11T11:14:18;78935.41;;;-145.37;87.42
13486;BME280;6815;59.336;17.998;2022-12-11T11:16:52;78889.13;;;-145.37;87.13
13486;BME280;6815;59.336;17.998;2022-12-11T11:19:26;78907.25;;;-145.37;86.74
13486;BME280;6815;59.336;17.998;2022-12-11T11:21:55;78889.13;;;-145.37;86.70
13486;BME280;6815;59.336;17.998;2022-12-11T11:24:29;78909.25;;;-145.37;86.58
13486;BME280;6815;59.336;17.998;2022-12-11T11:26:56;78907.25;;;-145.37;86.48
13486;BME280;6815;59.336;17.998;2022-12-11T11:29:28;78911.25;;;-145.37;85.66
13486;BME280;6815;59.336;17.998;2022-12-11T11:31:56;78905.22;;;-145.37;86.26
13486;BME280;6815;59.336;17.998;2022-12-11T11:34:21;78911.25;;;-145.37;86.28
13486;BME280;6815;59.336;17.998;2022-12-11T11:36:57;78913.28;;;-145.37;85.91
13486;BME280;6815;59.336;17.998;2022-12-11T11:39:35;78915.28;;;-145.37;86.05
13486;BME280;6815;59.336;17.998;2022-12-11T11:42:06;78927.34;;;-145.37;85.77
13486;BME280;6815;59.336;17.998;2022-12-11T11:44:40;78937.41;;;-145.37;86.09
13486;BME280;6815;59.336;17.998;2022-12-11T11:47:19;78931.38;;;-145.37;86.28
13486;BME280;6815;59.336;17.998;2022-12-11T11:49:54;78921.31;;;-145.37;85.89
13486;BME280;6815;59.336;17.998;2022-12-11T11:52:38;78919.31;;;-145.37;85.83
13486;BME280;6815;59.336;17.998;2022-12-11T11:57:59;78937.41;;;-145.37;86.13
13486;BME280;6815;59.336;17.998;2022-12-11T12:00:28;78931.38;;;-145.37;86.23
13486;BME280;6815;59.336;17.998;2022-12-11T12:02:56;78935.41;;;-145.37;86.24
13486;BME280;6815;59.336;17.998;2022-12-11T12:08:13;78933.41;;;-145.37;85.66
13486;BME280;6815;59.336;17.998;2022-12-11T12:10:43;78915.28;;;-145.37;85.46
13486;BME280;6815;59.336;17.998;2022-12-11T12:13:29;78903.22;;;-145.37;85.70
13486;BME280;6815;59.336;17.998;2022-12-11T12:15:58;78913.28;;;-145.37;85.57
13486;BME280;6815;59.336;17.998;2022-12-11T12:32:16;78921.31;;;-145.37;85.10
13486;BME280;6815;59.336;17.998;2022-12-11T12:42:29;78919.31;;;-145.37;84.35
13486;BME280;6815;59.336;17.998;2022-12-11T12:47:37;78935.41;;;-145.37;85.16
13486;BME280;6815;59.336;17.998;2022-12-11T12:50:10;78945.47;;;-145.37;85.41
13486;BME280;6815;59.336;17.998;2022-12-11T12:52:38;78929.38;;;-145.37;85.50
13486;BME280;6815;59.336;17.998;2022-12-11T12:55:24;78911.25;;;-145.37;84.34
13486;BME280;6815;59.336;17.998;2022-12-11T12:57:58;78919.31;;;-145.37;84.82
13486;BME280;6815;59.336;17.998;2022-12-11T13:00:30;78943.47;;;-145.37;84.95
13486;BME280;6815;59.336;17.998;2022-12-11T13:02:58;78897.19;;;-145.37;84.53
13486;BME280;6815;59.336;17.998;2022-12-11T13:05:28;78899.19;;;-145.37;84.23
13486;BME280;6815;59.336;17.998;2022-12-11T13:07:56;78923.34;;;-145.37;84.64
13486;BME280;6815;59.336;17.998;2022-12-11T13:10:34;78925.34;;;-145.37;84.50
13486;BME280;6815;59.336;17.998;2022-12-11T13:13:02;78917.31;;;-145.37;83.93
13486;BME280;6815;59.336;17.998;2022-12-11T13:15:40;78947.47;;;-145.37;85.10
13486;BME280;6815;59.336;17.998;2022-12-11T13:18:31;78945.47;;;-145.37;84.92
13486;BME280;6815;59.336;17.998;2022-12-11T13:20:57;78929.38;;;-145.37;85.37
13486;BME280;6815;59.336;17.998;2022-12-11T13:23:32;78947.47;;;-145.37;84.81
13486;BME280;6815;59.336;17.998;2022-12-11T13:26:02;78933.41;;;-145.37;85.03
13486;BME280;6815;59.336;17.998;2022-12-11T13:28:44;78941.44;;;-145.37;84.96
13486;BME280;6815;59.336;17.998;2022-12-11T13:33:46;78929.38;;;-145.37;85.43
13486;BME280;6815;59.336;17.998;2022-12-11T13:38:47;78951.50;;;-145.37;84.88
13486;BME280;6815;59.336;17.998;2022-12-11T13:41:13;78955.53;;;-145.37;85.07
13486;BME280;6815;59.336;17.998;2022-12-11T13:43:42;78947.47;;;-145.37;84.34
13486;BME280;6815;59.336;17.998;2022-12-11T13:46:12;78931.38;;;-145.37;85.08
13486;BME280;6815;59.336;17.998;2022-12-11T13:48:47;78943.47;;;-145.37;85.35
13486;BME280;6815;59.336;17.998;2022-12-11T13:51:17;78919.31;;;-145.37;85.46
13486;BME280;6815;59.336;17.998;2022-12-11T13:53:43;78961.56;;;-145.37;85.24
13486;BME280;6815;59.336;17.998;2022-12-11T13:56:17;78963.56;;;-145.37;85.29
13486;BME280;6815;59.336;17.998;2022-12-11T13:58:43;78947.47;;;-145.37;85.79
13486;BME280;6815;59.336;17.998;2022-12-11T14:01:12;78931.38;;;-145.37;85.35
13486;BME280;6815;59.336;17.998;2022-12-11T14:04:05;78939.44;;;-145.37;85.32
13486;BME280;6815;59.336;17.998;2022-12-11T14:06:32;78931.38;;;-145.37;85.23
13486;BME280;6815;59.336;17.998;2022-12-11T14:09:00;78931.38;;;-145.37;86.06
13486;BME280;6815;59.336;17.998;2022-12-11T14:11:32;78931.38;;;-145.37;85.93
13486;BME280;6815;59.336;17.998;2022-12-11T14:14:01;78937.41;;;-145.37;85.68
13486;BME280;6815;59.336;17.998;2022-12-11T14:16:29;78931.38;;;-145.37;85.99
13486;BME280;6815;59.336;17.998;2022-12-11T14:18:59;78943.47;;;-145.37;86.14
13486;BME280;6815;59.336;17.998;2022-12-11T14:21:27;78937.41;;;-145.37;85.94
13486;BME280;6815;59.336;17.998;2022-12-11T14:23:58;78939.44;;;-145.37;85.94
13486;BME280;6815;59.336;17.998;2022-12-11T14:26:27;78951.50;;;-145.37;86.44
13486;BME280;6815;59.336;17.998;2022-12-11T14:28:53;78937.41;;;-145.37;85.99
13486;BME280;6815;59.336;17.998;2022-12-11T14:33:53;78929.38;;;-145.37;85.74
13486;BME280;6815;59.336;17.998;2022-12-11T14:36:20;78929.38;;;-145.37;85.37
13486;BME280;6815;59.336;17.998;2022-12-11T14:38:51;78931.38;;;-145.37;85.12
13486;BME280;6815;59.336;17.998;2022-12-11T14:41:24;78945.47;;;-145.37;85.35
13486;BME280;6815;59.336;17.998;2022-12-11T14:43:54;78931.38;;;-145.37;85.57
13486;BME280;6815;59.336;17.998;2022-12-11T14:46:37;78935.41;;;-145.37;86.15
13486;BME280;6815;59.336;17.998;2022-12-11T14:49:10;78905.22;;;-145.37;85.56
13486;BME280;6815;59.336;17.998;2022-12-11T14:51:41;78907.25;;;-145.37;85.05
13486;BME280;6815;59.336;17.998;2022-12-11T14:54:16;78909.25;;;-145.37;85.29
13486;BME280;6815;59.336;17.998;2022-12-11T14:56:44;78907.25;;;-145.37;85.24
13486;BME280;6815;59.336;17.998;2022-12-11T14:59:17;78929.38;;;-145.37;85.92
13486;BME280;6815;59.336;17.998;2022-12-11T15:01:56;78891.16;;;-145.37;85.20
13486;BME280;6815;59.336;17.998;2022-12-11T15:04:27;78911.25;;;-145.37;85.07
13486;BME280;6815;59.336;17.998;2022-12-11T15:06:53;78933.41;;;-145.37;85.60
13486;BME280;6815;59.336;17.998;2022-12-11T15:12:17;78927.34;;;-145.37;85.92
13486;BME280;6815;59.336;17.998;2022-12-11T15:15:06;78911.25;;;-145.37;85.34
13486;BME280;6815;59.336;17.998;2022-12-11T15:17:36;78907.25;;;-145.37;85.10
13486;BME280;6815;59.336;17.998;2022-12-11T15:20:06;78931.38;;;-145.37;85.46
13486;BME280;6815;59.336;17.998;2022-12-11T15:22:33;78937.41;;;-145.37;85.19
13486;BME280;6815;59.336;17.998;2022-12-11T15:24:58;78919.31;;;-145.37;85.19
13486;BME280;6815;59.336;17.998;2022-12-11T15:27:34;78931.38;;;-145.37;85.16
13486;BME280;6815;59.336;17.998;2022-12-11T15:35:29;78933.41;;;-145.37;85.19
13486;BME280;6815;59.336;17.998;2022-12-11T15:37:58;78907.25;;;-145.37;84.82
13486;BME280;6815;59.336;17.998;2022-12-11T15:40:24;78925.34;;;-145.37;84.99
13486;BME280;6815;59.336;17.998;2022-12-11T15:42:49;78945.47;;;-145.37;85.37
13486;BME280;6815;59.336;17.998;2022-12-11T15:45:21;78923.34;;;-145.37;85.73
13486;BME280;6815;59.336;17.998;2022-12-11T15:47:48;78907.25;;;-145.37;84.96